createdAt,value
2023-04-02T00:01:29.642Z,11.10
2023-04-02T00:04:04.106Z,10.38
2023-04-02T00:06:32.980Z,10.60
2023-04-02T00:09:18.079Z,11.77
2023-04-02T00:11:46.577Z,11.35
2023-04-02T00:14:22.248Z,11.25
2023-04-02T00:16:49.093Z,11.50
2023-04-02T00:19:26.212Z,11.38
2023-04-02T00:21:53.385Z,12.07
2023-04-02T00:24:21.915Z,12.00
2023-04-02T00:26:50.939Z,14.02
2023-04-02T00:29:19.155Z,13.45
2023-04-02T00:31:48.315Z,12.57
2023-04-02T00:34:28.980Z,11.02
2023-04-02T00:36:55.555Z,11.35
2023-04-02T00:39:24.834Z,11.57
2023-04-02T00:42:04.800Z,10.73
2023-04-02T00:44:38.738Z,11.18
2023-04-02T00:47:21.315Z,10.65
2023-04-02T00:49:51.454Z,9.20
2023-04-02T00:52:22.182Z,12.68
2023-04-02T00:54:51.697Z,9.50
2023-04-02T00:57:25.527Z,9.93
2023-04-02T00:59:59.092Z,8.93
2023-04-02T01:02:28.081Z,9.77
2023-04-02T01:05:00.781Z,9.32
2023-04-02T01:08:03.093Z,10.63
2023-04-02T01:10:38.594Z,9.50
2023-04-02T01:13:34.147Z,8.88
2023-04-02T01:16:21.156Z,8.63
2023-04-02T01:18:50.270Z,9.38
2023-04-02T01:21:42.226Z,7.93
2023-04-02T01:24:13.564Z,8.20
2023-04-02T01:26:57.946Z,7.38
2023-04-02T01:29:48.967Z,7.45
2023-04-02T01:32:18.395Z,7.70
2023-04-02T01:34:46.907Z,7.63
2023-04-02T01:37:32.679Z,7.15
2023-04-02T01:40:14.628Z,7.05
2023-04-02T01:43:13.486Z,8.27
2023-04-02T01:45:40.117Z,7.90
2023-04-02T01:48:19.993Z,8.05
2023-04-02T01:50:49.825Z,8.30
2023-04-02T01:53:18.344Z,8.75
2023-04-02T01:55:48.701Z,9.10
2023-04-02T01:58:20.231Z,8.95
2023-04-02T02:00:53.129Z,8.95
2023-04-02T02:03:20.676Z,8.55
2023-04-02T02:05:47.297Z,8.98
2023-04-02T02:08:34.387Z,9.25
2023-04-02T02:11:02.542Z,9.40
2023-04-02T02:13:29.253Z,8.65
2023-04-02T02:16:00.029Z,7.97
2023-04-02T02:18:27.574Z,8.68
2023-04-02T02:20:54.686Z,9.30
2023-04-02T02:23:21.518Z,8.27
2023-04-02T02:25:48.368Z,9.30
2023-04-02T02:28:29.945Z,10.13
2023-04-02T02:30:58.001Z,10.32
2023-04-02T02:33:29.112Z,10.60
2023-04-02T02:36:16.182Z,11.38
2023-04-02T02:38:58.796Z,9.70
2023-04-02T02:41:49.914Z,9.75
2023-04-02T02:46:48.631Z,10.90
2023-04-02T02:49:22.718Z,9.07
2023-04-02T02:52:10.589Z,9.57
2023-04-02T02:54:40.291Z,9.77
2023-04-02T02:57:11.842Z,11.70
2023-04-02T02:59:38.628Z,9.60
2023-04-02T03:02:07.336Z,8.95
2023-04-02T03:04:37.344Z,9.35
2023-04-02T03:07:06.109Z,9.90
2023-04-02T03:09:53.992Z,12.13
2023-04-02T03:12:49.580Z,10.13
2023-04-02T03:15:29.312Z,11.77
2023-04-02T03:18:12.280Z,8.98
2023-04-02T03:21:02.902Z,11.85
2023-04-02T03:23:37.606Z,10.52
2023-04-02T03:26:16.204Z,9.10
2023-04-02T03:28:51.701Z,9.75
2023-04-02T03:31:25.416Z,8.50
2023-04-02T03:33:57.003Z,8.30
2023-04-02T03:36:49.148Z,9.93
2023-04-02T03:39:24.295Z,8.00
2023-04-02T03:42:05.791Z,9.90
2023-04-02T03:44:36.578Z,8.80
2023-04-02T03:47:24.974Z,8.70
2023-04-02T03:50:00.480Z,10.85
2023-04-02T03:52:28.542Z,10.98
2023-04-02T03:54:59.567Z,10.95
2023-04-02T04:00:20.949Z,10.90
2023-04-02T04:02:52.225Z,11.20
2023-04-02T04:05:31.391Z,12.20
2023-04-02T04:08:04.056Z,11.57
2023-04-02T04:10:31.788Z,12.50
2023-04-02T04:13:05.515Z,16.52
2023-04-02T04:16:00.676Z,12.43
2023-04-02T04:18:57.114Z,15.82
2023-04-02T04:21:52.841Z,14.18
2023-04-02T04:24:25.940Z,12.73
2023-04-02T04:27:04.516Z,13.02
2023-04-02T04:29:45.445Z,12.60
2023-04-02T04:32:18.348Z,13.43
2023-04-02T04:34:53.593Z,12.73
2023-04-02T04:37:25.258Z,14.50
2023-04-02T04:40:09.168Z,12.95
2023-04-02T04:42:38.235Z,17.70
2023-04-02T04:45:23.298Z,13.95
2023-04-02T04:48:00.461Z,14.60
2023-04-02T04:50:37.865Z,17.63
2023-04-02T04:53:08.705Z,17.45
2023-04-02T04:55:41.024Z,19.27
2023-04-02T04:58:26.395Z,14.50
2023-04-02T05:00:55.771Z,16.48
2023-04-02T05:03:54.466Z,16.67
2023-04-02T05:06:25.914Z,14.38
2023-04-02T05:08:55.211Z,16.50
2023-04-02T05:11:36.190Z,18.15
2023-04-02T05:14:08.454Z,17.83
2023-04-02T05:17:05.672Z,21.30
2023-04-02T05:19:45.808Z,18.00
2023-04-02T05:22:17.998Z,17.47
2023-04-02T05:24:47.733Z,17.08
2023-04-02T05:27:23.213Z,18.95
2023-04-02T05:30:10.684Z,13.80
2023-04-02T05:32:42.408Z,14.10
2023-04-02T05:35:15.468Z,19.08
2023-04-02T05:37:42.359Z,20.92
2023-04-02T05:40:41.752Z,17.77
2023-04-02T05:43:10.509Z,16.77
2023-04-02T05:45:39.421Z,20.92
2023-04-02T05:48:19.246Z,15.30
2023-04-02T05:50:51.268Z,14.95
2023-04-02T05:53:22.115Z,18.20
2023-04-02T05:55:53.673Z,15.35
2023-04-02T05:58:36.361Z,17.33
2023-04-02T06:01:25.485Z,20.70
2023-04-02T06:04:03.945Z,17.10
2023-04-02T06:06:39.703Z,16.48
2023-04-02T06:09:11.862Z,14.93
2023-04-02T06:11:42.384Z,13.57
2023-04-02T06:14:12.965Z,17.88
2023-04-02T06:16:40.338Z,15.70
2023-04-02T06:19:10.744Z,19.52
2023-04-02T06:21:44.048Z,15.80
2023-04-02T06:24:11.761Z,13.38
2023-04-02T06:26:41.697Z,17.60
2023-04-02T06:29:17.082Z,19.73
2023-04-02T06:31:58.878Z,17.58
2023-04-02T06:34:27.861Z,13.57
2023-04-02T06:37:00.122Z,20.45
2023-04-02T06:39:27.685Z,20.13
2023-04-02T06:42:04.961Z,17.40
2023-04-02T06:44:37.138Z,19.65
2023-04-02T06:47:22.976Z,18.40
2023-04-02T06:49:55.221Z,12.65
2023-04-02T06:52:26.078Z,18.33
2023-04-02T06:54:52.594Z,18.20
2023-04-02T06:57:19.163Z,17.15
2023-04-02T06:59:47.427Z,15.43
2023-04-02T07:02:37.282Z,16.42
2023-04-02T07:05:09.000Z,13.75
2023-04-02T07:07:36.097Z,14.05
2023-04-02T07:10:02.818Z,14.23
2023-04-02T07:12:29.302Z,11.75
2023-04-02T07:14:55.951Z,19.10
2023-04-02T07:17:23.253Z,15.25
2023-04-02T07:19:49.865Z,13.43
2023-04-02T07:22:19.623Z,11.52
2023-04-02T07:24:46.805Z,12.15
2023-04-02T07:27:15.813Z,11.77
2023-04-02T07:29:45.097Z,11.00
2023-04-02T07:32:13.139Z,11.35
2023-04-02T07:34:40.780Z,10.20
2023-04-02T07:37:08.138Z,15.75
2023-04-02T07:39:36.565Z,11.60
2023-04-02T07:42:04.372Z,12.70
2023-04-02T07:44:30.920Z,12.05
2023-04-02T07:46:57.535Z,8.50
2023-04-02T07:49:24.177Z,11.00
2023-04-02T07:51:51.828Z,9.05
2023-04-02T07:54:18.290Z,17.88
2023-04-02T07:56:44.855Z,8.73
2023-04-02T07:59:11.645Z,11.35
2023-04-02T08:01:38.229Z,9.68
2023-04-02T08:04:05.773Z,9.13
2023-04-02T08:06:32.514Z,9.95
2023-04-02T08:08:59.084Z,8.77
2023-04-02T08:11:25.661Z,12.35
2023-04-02T08:13:52.261Z,11.15
2023-04-02T08:16:18.865Z,15.50
2023-04-02T08:18:47.622Z,11.23
2023-04-02T08:21:16.337Z,9.52
2023-04-02T08:23:43.498Z,9.07
2023-04-02T08:26:10.068Z,9.10
2023-04-02T08:28:36.615Z,9.30
2023-04-02T08:31:04.665Z,10.82
2023-04-02T08:33:31.493Z,8.93
2023-04-02T08:35:58.238Z,10.85
2023-04-02T08:38:25.354Z,10.90
2023-04-02T08:40:54.525Z,10.70
2023-04-02T08:43:31.024Z,9.35
2023-04-02T08:46:14.649Z,8.57
2023-04-02T08:48:44.424Z,8.77
2023-04-02T08:51:23.116Z,11.40
2023-04-02T08:53:50.502Z,8.20
2023-04-02T08:56:26.739Z,8.80
2023-04-02T08:58:54.669Z,6.78
2023-04-02T09:01:26.227Z,7.70
2023-04-02T09:03:55.758Z,7.95
2023-04-02T09:06:23.089Z,6.50
2023-04-02T09:08:51.419Z,7.85
2023-04-02T09:11:24.071Z,5.75
2023-04-02T09:13:55.911Z,10.45
2023-04-02T09:16:34.615Z,6.70
2023-04-02T09:19:02.231Z,14.45
2023-04-02T09:21:35.307Z,6.18
2023-04-02T09:24:03.974Z,7.30
2023-04-02T09:26:33.525Z,5.38
2023-04-02T09:29:05.267Z,5.72
2023-04-02T09:31:50.982Z,5.78
2023-04-02T09:34:34.827Z,6.03
2023-04-02T09:37:22.981Z,7.38
2023-04-02T09:39:49.697Z,9.60
2023-04-02T09:42:38.224Z,6.72
2023-04-02T09:45:26.196Z,6.90
2023-04-02T09:48:02.273Z,6.65
2023-04-02T09:50:32.063Z,6.82
2023-04-02T09:52:59.433Z,5.82
2023-04-02T09:55:31.235Z,7.03
2023-04-02T09:58:12.679Z,5.90
2023-04-02T10:00:42.089Z,6.05
2023-04-02T10:03:31.208Z,5.78
2023-04-02T10:06:13.379Z,8.98
2023-04-02T10:08:42.723Z,5.10
2023-04-02T10:11:14.230Z,5.35
2023-04-02T10:14:03.943Z,5.65
2023-04-02T10:16:59.331Z,6.82
2023-04-02T10:19:36.476Z,5.07
2023-04-02T10:22:13.214Z,5.15
2023-04-02T10:24:39.910Z,9.07
2023-04-02T10:27:22.785Z,6.05
2023-04-02T10:30:02.787Z,5.13
2023-04-02T10:32:44.349Z,5.33
2023-04-02T10:40:52.063Z,4.72
2023-04-02T10:43:34.344Z,5.25
2023-04-02T10:46:05.193Z,6.45
2023-04-02T10:48:45.472Z,5.00
2023-04-02T10:51:46.553Z,5.10
2023-04-02T10:54:27.911Z,4.47
2023-04-02T10:57:06.713Z,4.97
2023-04-02T10:59:40.732Z,5.57
2023-04-02T11:02:23.263Z,5.60
2023-04-02T11:04:50.841Z,5.68
2023-04-02T11:07:21.164Z,4.97
2023-04-02T11:09:54.169Z,4.80
2023-04-02T11:12:41.577Z,4.68
2023-04-02T11:15:18.783Z,5.70
2023-04-02T11:17:46.080Z,5.38
2023-04-02T11:20:47.756Z,5.22
2023-04-02T11:23:18.402Z,6.15
2023-04-02T11:25:45.464Z,5.32
2023-04-02T11:28:14.316Z,5.50
2023-04-02T11:30:42.603Z,6.10
2023-04-02T11:33:54.689Z,6.80
2023-04-02T11:36:55.578Z,6.35
2023-04-02T11:39:51.082Z,6.35
2023-04-02T11:42:32.726Z,5.38
2023-04-02T11:45:02.034Z,5.18
2023-04-02T11:47:30.411Z,6.22
2023-04-02T11:50:04.162Z,5.50
2023-04-02T11:52:33.608Z,5.35
2023-04-02T11:55:19.945Z,5.95
2023-04-02T11:58:01.867Z,5.18
2023-04-02T12:00:50.939Z,5.40
2023-04-02T12:03:36.400Z,6.20
2023-04-02T12:06:21.726Z,5.00
2023-04-02T12:09:20.712Z,4.78
2023-04-02T12:11:47.773Z,5.28
2023-04-02T12:14:33.358Z,5.50
2023-04-02T12:17:00.137Z,5.43
2023-04-02T12:19:27.413Z,5.32
2023-04-02T12:21:54.354Z,5.15
2023-04-02T12:24:23.069Z,4.93
2023-04-02T12:26:49.784Z,5.40
2023-04-02T12:29:26.074Z,5.63
2023-04-02T12:31:55.126Z,5.30
2023-04-02T12:34:24.119Z,4.82
2023-04-02T12:36:55.812Z,8.15
2023-04-02T12:39:24.284Z,5.68
2023-04-02T12:41:51.959Z,5.30
2023-04-02T12:44:23.906Z,5.10
2023-04-02T12:46:51.348Z,5.05
2023-04-02T12:49:28.285Z,5.55
2023-04-02T12:52:02.325Z,5.88
2023-04-02T12:54:29.539Z,6.00
2023-04-02T12:57:28.900Z,6.65
2023-04-02T12:59:57.374Z,5.50
2023-04-02T13:02:26.684Z,5.82
2023-04-02T13:04:55.862Z,5.05
2023-04-02T13:07:26.717Z,6.45
2023-04-02T13:09:54.946Z,5.53
2023-04-02T13:12:41.134Z,5.22
2023-04-02T13:15:18.255Z,5.18
2023-04-02T13:18:01.349Z,5.28
2023-04-02T13:20:36.843Z,6.18
2023-04-02T13:23:33.543Z,5.68
2023-04-02T13:26:10.955Z,6.82
2023-04-02T13:28:38.087Z,6.50
2023-04-02T13:31:04.677Z,6.28
2023-04-02T13:33:31.776Z,5.75
2023-04-02T13:35:58.341Z,6.40
2023-04-02T13:38:24.872Z,5.97
2023-04-02T13:40:51.766Z,5.55
2023-04-02T13:43:20.113Z,6.05
2023-04-02T13:45:49.690Z,5.90
2023-04-02T13:48:18.172Z,5.63
2023-04-02T13:50:45.992Z,6.03
2023-04-02T13:53:22.570Z,5.10
2023-04-02T13:55:49.296Z,5.45
2023-04-02T13:58:15.993Z,5.65
2023-04-02T14:00:42.870Z,6.10
2023-04-02T14:03:18.555Z,9.75
2023-04-02T14:05:53.757Z,5.65
2023-04-02T14:08:27.152Z,5.60
2023-04-02T14:11:03.160Z,5.32
2023-04-02T14:13:52.431Z,5.75
2023-04-02T14:16:24.776Z,5.90
2023-04-02T14:19:33.568Z,8.70
2023-04-02T14:22:39.788Z,6.85
2023-04-02T14:25:34.754Z,6.93
2023-04-02T14:28:16.847Z,7.30
2023-04-02T14:31:06.088Z,5.93
2023-04-02T14:33:57.736Z,6.13
2023-04-02T14:36:31.376Z,6.38
2023-04-02T14:39:12.150Z,7.07
2023-04-02T14:41:46.221Z,6.18
2023-04-02T14:44:13.281Z,6.00
2023-04-02T14:46:39.919Z,5.82
2023-04-02T14:49:28.572Z,6.30
2023-04-02T14:52:04.748Z,6.03
2023-04-02T14:54:52.340Z,9.30
2023-04-02T14:57:24.982Z,6.30
2023-04-02T15:00:04.030Z,6.35
2023-04-02T15:02:46.569Z,6.50
2023-04-02T15:05:34.470Z,6.85
2023-04-02T15:08:18.717Z,6.47
2023-04-02T15:11:08.275Z,6.13
2023-04-02T15:13:43.329Z,7.03
2023-04-02T15:16:13.542Z,7.20
2023-04-02T15:18:40.709Z,8.30
2023-04-02T15:21:13.574Z,6.95
2023-04-02T15:23:50.680Z,6.80
2023-04-02T15:26:27.177Z,6.60
2023-04-02T15:29:25.870Z,7.25
2023-04-02T15:32:01.341Z,6.85
2023-04-02T15:34:35.917Z,6.00
2023-04-02T15:37:11.474Z,6.95
2023-04-02T15:39:56.653Z,6.78
2023-04-02T15:42:31.214Z,6.03
2023-04-02T15:45:09.486Z,6.63
2023-04-02T15:48:20.792Z,6.75
2023-04-02T15:53:31.158Z,6.68
2023-04-02T15:56:00.763Z,6.75
2023-04-02T15:58:44.120Z,6.72
2023-04-02T16:01:20.045Z,7.80
2023-04-02T16:04:19.706Z,6.70
2023-04-02T16:07:14.472Z,6.45
2023-04-02T16:09:59.235Z,7.85
2023-04-02T16:12:29.442Z,5.95
2023-04-02T16:15:05.792Z,6.90
2023-04-02T16:17:42.315Z,6.43
2023-04-02T16:20:23.954Z,6.15
2023-04-02T16:23:00.402Z,6.10
2023-04-02T16:25:31.967Z,6.30
2023-04-02T16:28:20.314Z,6.63
2023-04-02T16:30:51.256Z,7.40
2023-04-02T16:36:10.685Z,6.70
2023-04-02T16:38:59.706Z,7.72
2023-04-02T16:41:50.660Z,6.97
2023-04-02T16:44:25.881Z,6.45
2023-04-02T16:46:58.244Z,6.18
2023-04-02T16:49:37.789Z,6.47
2023-04-02T16:52:08.445Z,5.88
2023-04-02T16:55:00.900Z,6.55
2023-04-02T16:57:27.671Z,8.45
2023-04-02T17:00:23.832Z,7.88
2023-04-02T17:03:02.590Z,7.00
2023-04-02T17:05:51.033Z,7.47
2023-04-02T17:08:26.030Z,8.10
2023-04-02T17:11:07.422Z,6.70
2023-04-02T17:13:47.848Z,6.90
2023-04-02T17:16:20.103Z,6.10
2023-04-02T17:18:49.800Z,6.20
2023-04-02T17:21:23.000Z,6.40
2023-04-02T17:23:56.202Z,6.30
2023-04-02T17:26:27.178Z,6.50
2023-04-02T17:28:59.129Z,6.85
2023-04-02T17:31:30.694Z,6.13
2023-04-02T17:33:57.466Z,6.47
2023-04-02T17:36:39.173Z,6.85
2023-04-02T17:39:08.599Z,6.80
2023-04-02T17:41:41.582Z,6.18
2023-04-02T17:44:27.446Z,6.22
2023-04-02T17:47:20.352Z,6.95
2023-04-02T17:50:08.088Z,7.68
2023-04-02T17:52:34.605Z,7.20
2023-04-02T17:55:29.130Z,6.05
2023-04-02T17:58:19.554Z,6.40
2023-04-02T18:01:02.763Z,6.28
2023-04-02T18:03:51.086Z,6.35
2023-04-02T18:06:56.102Z,5.85
2023-04-02T18:09:34.621Z,5.82
2023-04-02T18:12:19.945Z,5.82
2023-04-02T18:15:02.110Z,6.05
2023-04-02T18:17:42.035Z,9.88
2023-04-02T18:20:30.519Z,9.55
2023-04-02T18:23:14.691Z,6.65
2023-04-02T18:25:56.025Z,7.43
2023-04-02T18:28:32.456Z,5.82
2023-04-02T18:31:09.272Z,5.60
2023-04-02T18:34:00.398Z,6.57
2023-04-02T18:39:25.871Z,7.53
2023-04-02T18:42:17.317Z,6.50
2023-04-02T18:44:50.121Z,5.88
2023-04-02T18:47:17.131Z,7.00
2023-04-02T18:49:51.862Z,5.65
2023-04-02T18:52:19.128Z,6.40
2023-04-02T18:54:52.966Z,6.75
2023-04-02T18:57:31.312Z,6.78
2023-04-02T19:00:02.598Z,7.25
2023-04-02T19:02:36.020Z,7.38
2023-04-02T19:05:28.802Z,6.80
2023-04-02T19:08:04.726Z,6.85
2023-04-02T19:10:34.285Z,6.43
2023-04-02T19:13:01.669Z,5.18
2023-04-02T19:15:54.748Z,8.65
2023-04-02T19:18:36.033Z,15.88
2023-04-02T19:23:52.327Z,8.27
2023-04-02T19:26:22.851Z,7.25
2023-04-02T19:29:05.237Z,6.85
2023-04-02T19:32:02.635Z,7.07
2023-04-02T19:35:04.614Z,5.93
2023-04-02T19:37:38.499Z,6.57
2023-04-02T19:40:51.590Z,6.55
2023-04-02T19:43:18.241Z,8.45
2023-04-02T19:45:47.850Z,6.28
2023-04-02T19:48:17.374Z,7.03
2023-04-02T19:50:45.011Z,6.72
2023-04-02T19:53:11.941Z,6.85
2023-04-02T19:55:39.750Z,7.13
2023-04-02T19:58:18.875Z,7.47
2023-04-02T20:00:46.398Z,8.00
2023-04-02T20:03:13.029Z,8.63
2023-04-02T20:05:40.899Z,7.88
2023-04-02T20:08:07.549Z,8.48
2023-04-02T20:10:36.878Z,7.68
2023-04-02T20:13:03.803Z,7.43
2023-04-02T20:15:30.756Z,7.40
2023-04-02T20:18:00.505Z,7.20
2023-04-02T20:20:27.449Z,6.43
2023-04-02T20:22:53.932Z,7.57
2023-04-02T20:25:20.427Z,10.40
2023-04-02T20:27:47.023Z,8.85
2023-04-02T20:30:13.679Z,8.98
2023-04-02T20:32:40.746Z,8.43
2023-04-02T20:35:07.642Z,8.77
2023-04-02T20:37:34.168Z,9.38
2023-04-02T20:40:00.791Z,8.48
2023-04-02T20:42:27.749Z,9.13
2023-04-02T20:44:54.355Z,8.75
2023-04-02T20:47:20.998Z,8.27
2023-04-02T20:49:47.668Z,11.20
2023-04-02T20:52:14.197Z,9.38
2023-04-02T20:54:40.729Z,9.68
2023-04-02T20:57:07.341Z,8.82
2023-04-02T20:59:33.933Z,10.57
2023-04-02T21:02:01.924Z,8.43
2023-04-02T21:04:28.822Z,9.80
2023-04-02T21:06:57.135Z,10.88
2023-04-02T21:09:24.071Z,10.40
2023-04-02T21:11:50.847Z,11.38
2023-04-02T21:14:18.137Z,11.98
2023-04-02T21:16:45.134Z,14.68
2023-04-02T21:19:11.664Z,11.80
2023-04-02T21:21:39.152Z,11.27
2023-04-02T21:24:07.828Z,10.57
2023-04-02T21:26:37.412Z,11.52
2023-04-02T21:29:04.211Z,10.73
2023-04-02T21:31:34.610Z,12.07
2023-04-02T21:34:01.246Z,11.48
2023-04-02T21:36:33.350Z,10.13
2023-04-02T21:39:02.815Z,9.77
2023-04-02T21:41:34.827Z,10.35
2023-04-02T21:44:03.350Z,10.32
2023-04-02T21:46:31.757Z,9.40
2023-04-02T21:48:59.455Z,9.35
2023-04-02T21:51:31.329Z,9.68
2023-04-02T21:53:58.681Z,9.98
2023-04-02T21:56:27.244Z,10.70
2023-04-02T21:58:54.964Z,11.70
2023-04-02T22:01:27.285Z,10.70
2023-04-02T22:03:55.764Z,14.40
2023-04-02T22:06:23.764Z,11.23
2023-04-02T22:08:58.883Z,10.18
2023-04-02T22:11:31.198Z,10.13
2023-04-02T22:13:57.950Z,10.23
2023-04-02T22:16:27.246Z,9.82
2023-04-02T22:18:55.836Z,11.07
2023-04-02T22:21:23.127Z,10.05
2023-04-02T22:23:49.826Z,10.45
2023-04-02T22:26:17.065Z,10.02
2023-04-02T22:28:43.701Z,8.93
2023-04-02T22:31:24.875Z,9.00
2023-04-02T22:33:52.442Z,10.00
2023-04-02T22:36:19.667Z,9.15
2023-04-02T22:38:46.442Z,9.00
2023-04-02T22:41:14.334Z,8.80
2023-04-02T22:43:42.870Z,12.00
2023-04-02T22:46:11.155Z,9.32
2023-04-02T22:48:41.191Z,9.23
2023-04-02T22:51:09.257Z,8.93
2023-04-02T22:53:36.621Z,9.50
2023-04-02T22:56:11.095Z,9.45
2023-04-02T22:58:38.081Z,9.77
2023-04-02T23:01:06.561Z,9.65
2023-04-02T23:03:33.505Z,10.48
2023-04-02T23:06:01.772Z,11.07
2023-04-02T23:08:28.482Z,11.75
2023-04-02T23:11:24.938Z,10.85
2023-04-02T23:13:53.137Z,10.75
2023-04-02T23:16:20.328Z,10.70
2023-04-02T23:18:49.985Z,10.27
2023-04-02T23:21:17.542Z,9.77
2023-04-02T23:23:44.057Z,9.75
2023-04-02T23:26:13.472Z,10.73
2023-04-02T23:28:42.077Z,8.65
2023-04-02T23:31:12.612Z,9.85
2023-04-02T23:33:39.525Z,9.98
2023-04-02T23:36:11.313Z,10.00
2023-04-02T23:38:37.903Z,9.80
2023-04-02T23:41:04.468Z,10.35
2023-04-02T23:43:31.197Z,12.38
2023-04-02T23:45:58.943Z,10.98
2023-04-02T23:48:25.464Z,11.13
2023-04-02T23:50:52.027Z,11.55
2023-04-02T23:53:18.803Z,11.35
2023-04-02T23:55:45.812Z,9.95
2023-04-02T23:58:12.343Z,10.30
